SXS2XE LTAI-LTBJ
Flight info
| Callsign | SXS2XE |
|---|---|
| Flight time | 0h 43m |
| Altitude | 34000 |
| Route | EVBOL1K/18L EVBOL UT489 KAVAK UT283 OKESA |
| Aircraft | B38M/M-SDE1FGHILORVWXY/HB1 |
Departure
| Time | 2026-05-06 13:59 |
|---|---|
| Airport | Antalya International Airport (LTAI) |
Arrival
| Time | 2026-05-06 14:42 |
|---|---|
| Airport | Adnan Menderes International Airport (LTBJ) |
| Time | Latitude | Longitude | Altitude | Speed | Heading |
|---|---|---|---|---|---|
| 2026-05-06 13:39 | 36.91338 | 30.80066 | 180 ft | 0 kts | 96° |
| 2026-05-06 13:49 | 36.91338 | 30.80064 | 180 ft | 2 kts | 96° |
| 2026-05-06 13:49 | 36.91341 | 30.80033 | 180 ft | 4 kts | 95° |
| 2026-05-06 13:49 | 36.91343 | 30.79999 | 180 ft | 4 kts | 93° |
| 2026-05-06 13:49 | 36.91344 | 30.79966 | 180 ft | 4 kts | 89° |
| 2026-05-06 13:50 | 36.91342 | 30.79932 | 180 ft | 4 kts | 80° |
| 2026-05-06 13:50 | 36.91333 | 30.79902 | 180 ft | 4 kts | 49° |
| 2026-05-06 13:50 | 36.91322 | 30.79892 | 180 ft | 0 kts | 5° |
| 2026-05-06 13:54 | 36.91327 | 30.79893 | 180 ft | 2 kts | 5° |
| 2026-05-06 13:55 | 36.91355 | 30.79897 | 180 ft | 6 kts | 6° |
| 2026-05-06 13:55 | 36.91403 | 30.79901 | 180 ft | 8 kts | 1° |
| 2026-05-06 13:55 | 36.91467 | 30.79905 | 179 ft | 10 kts | 6° |
| 2026-05-06 13:55 | 36.91511 | 30.79869 | 179 ft | 9 kts | 273° |
| 2026-05-06 13:56 | 36.91518 | 30.79781 | 179 ft | 11 kts | 277° |
| 2026-05-06 13:56 | 36.91525 | 30.79707 | 179 ft | 8 kts | 276° |
| 2026-05-06 13:56 | 36.91530 | 30.79640 | 179 ft | 6 kts | 276° |
| 2026-05-06 13:56 | 36.91533 | 30.79613 | 178 ft | 2 kts | 276° |
| 2026-05-06 13:57 | 36.91533 | 30.79607 | 178 ft | 0 kts | 276° |
| 2026-05-06 13:57 | 36.91534 | 30.79600 | 178 ft | 2 kts | 276° |
| 2026-05-06 13:57 | 36.91539 | 30.79542 | 178 ft | 10 kts | 276° |
| 2026-05-06 13:58 | 36.91526 | 30.79472 | 178 ft | 8 kts | 208° |
| 2026-05-06 13:58 | 36.91461 | 30.79462 | 178 ft | 14 kts | 186° |
| 2026-05-06 13:58 | 36.91159 | 30.79424 | 181 ft | 82 kts | 185° |
| 2026-05-06 13:58 | 36.90332 | 30.79309 | 195 ft | 153 kts | 186° |
| 2026-05-06 13:59 | 36.89179 | 30.79161 | 730 ft | 178 kts | 185° |
| 2026-05-06 13:59 | 36.87845 | 30.78993 | 1490 ft | 208 kts | 189° |
| 2026-05-06 13:59 | 36.86401 | 30.78441 | 2513 ft | 216 kts | 205° |
| 2026-05-06 13:59 | 36.85050 | 30.77675 | 3589 ft | 217 kts | 204° |
| 2026-05-06 14:00 | 36.83619 | 30.76908 | 4397 ft | 227 kts | 204° |
| 2026-05-06 14:00 | 36.82136 | 30.76129 | 5236 ft | 238 kts | 204° |
| 2026-05-06 14:00 | 36.80577 | 30.75326 | 6058 ft | 243 kts | 205° |
| 2026-05-06 14:00 | 36.79026 | 30.74532 | 7052 ft | 241 kts | 205° |
| 2026-05-06 14:01 | 36.77452 | 30.73730 | 7869 ft | 247 kts | 205° |
| 2026-05-06 14:01 | 36.75775 | 30.72954 | 8405 ft | 268 kts | 203° |
| 2026-05-06 14:01 | 36.74105 | 30.71859 | 9075 ft | 276 kts | 225° |
| 2026-05-06 14:01 | 36.72968 | 30.69919 | 9726 ft | 283 kts | 253° |
| 2026-05-06 14:02 | 36.72633 | 30.67542 | 10573 ft | 282 kts | 273° |
| 2026-05-06 14:02 | 36.72604 | 30.65010 | 11018 ft | 303 kts | 272° |
| 2026-05-06 14:02 | 36.72562 | 30.62303 | 11470 ft | 320 kts | 273° |
| 2026-05-06 14:02 | 36.72542 | 30.60443 | 11853 ft | 328 kts | 273° |
| 2026-05-06 14:03 | 36.72520 | 30.57574 | 12633 ft | 333 kts | 273° |
| 2026-05-06 14:03 | 36.72509 | 30.54673 | 13451 ft | 337 kts | 273° |
| 2026-05-06 14:03 | 36.72639 | 30.51748 | 14196 ft | 340 kts | 277° |
| 2026-05-06 14:03 | 36.72796 | 30.48794 | 14903 ft | 342 kts | 278° |
| 2026-05-06 14:04 | 36.73045 | 30.45837 | 15630 ft | 344 kts | 280° |
| 2026-05-06 14:04 | 36.73305 | 30.42861 | 16359 ft | 347 kts | 280° |
| 2026-05-06 14:04 | 36.73868 | 30.39958 | 17096 ft | 344 kts | 295° |
| 2026-05-06 14:04 | 36.74781 | 30.37187 | 17747 ft | 347 kts | 295° |
| 2026-05-06 14:05 | 36.75664 | 30.34375 | 18434 ft | 350 kts | 294° |
| 2026-05-06 14:05 | 36.76550 | 30.31532 | 18981 ft | 353 kts | 294° |
| 2026-05-06 14:05 | 36.77439 | 30.28664 | 19500 ft | 356 kts | 294° |
| 2026-05-06 14:05 | 36.78333 | 30.25781 | 20087 ft | 357 kts | 294° |
| 2026-05-06 14:06 | 36.79231 | 30.22885 | 20659 ft | 359 kts | 294° |
| 2026-05-06 14:06 | 36.80135 | 30.19967 | 21216 ft | 362 kts | 294° |
| 2026-05-06 14:06 | 36.81044 | 30.17030 | 21773 ft | 364 kts | 294° |
| 2026-05-06 14:06 | 36.81957 | 30.14075 | 22334 ft | 366 kts | 294° |
| 2026-05-06 14:07 | 36.82876 | 30.11098 | 22848 ft | 370 kts | 295° |
| 2026-05-06 14:07 | 36.83795 | 30.08100 | 23510 ft | 369 kts | 293° |
| 2026-05-06 14:07 | 36.84715 | 30.05094 | 23941 ft | 373 kts | 293° |
| 2026-05-06 14:07 | 36.85645 | 30.02060 | 24361 ft | 375 kts | 293° |
| 2026-05-06 14:08 | 36.86580 | 29.99014 | 24778 ft | 377 kts | 293° |
| 2026-05-06 14:08 | 36.87523 | 29.95942 | 25184 ft | 379 kts | 293° |
| 2026-05-06 14:08 | 36.88469 | 29.92858 | 25599 ft | 381 kts | 293° |
| 2026-05-06 14:08 | 36.89419 | 29.89754 | 25992 ft | 384 kts | 293° |
| 2026-05-06 14:09 | 36.90376 | 29.86631 | 26355 ft | 386 kts | 293° |
| 2026-05-06 14:09 | 36.91338 | 29.83481 | 26681 ft | 389 kts | 293° |
| 2026-05-06 14:09 | 36.92304 | 29.80318 | 27148 ft | 390 kts | 293° |
| 2026-05-06 14:09 | 36.93268 | 29.77157 | 27677 ft | 388 kts | 293° |
| 2026-05-06 14:10 | 36.94229 | 29.74002 | 28016 ft | 390 kts | 293° |
| 2026-05-06 14:10 | 36.95192 | 29.70838 | 28058 ft | 387 kts | 293° |
| 2026-05-06 14:10 | 36.97094 | 29.64577 | 28050 ft | 385 kts | 293° |
| 2026-05-06 14:11 | 36.98995 | 29.58308 | 28062 ft | 385 kts | 293° |
| 2026-05-06 14:11 | 37.00890 | 29.52042 | 28046 ft | 385 kts | 293° |
| 2026-05-06 14:12 | 37.02780 | 29.45775 | 28065 ft | 385 kts | 293° |
| 2026-05-06 14:12 | 37.04668 | 29.39505 | 28071 ft | 385 kts | 293° |
| 2026-05-06 14:13 | 37.06554 | 29.33226 | 28054 ft | 385 kts | 293° |
| 2026-05-06 14:13 | 37.08436 | 29.26947 | 28073 ft | 385 kts | 293° |
| 2026-05-06 14:14 | 37.10304 | 29.20703 | 28070 ft | 385 kts | 293° |
| 2026-05-06 14:14 | 37.12179 | 29.14418 | 28068 ft | 385 kts | 293° |
| 2026-05-06 14:15 | 37.14051 | 29.08127 | 28056 ft | 386 kts | 293° |
| 2026-05-06 14:15 | 37.15920 | 29.01836 | 28065 ft | 384 kts | 293° |
| 2026-05-06 14:16 | 37.17785 | 28.95541 | 28055 ft | 385 kts | 294° |
| 2026-05-06 14:16 | 37.19641 | 28.89266 | 28062 ft | 383 kts | 293° |
| 2026-05-06 14:17 | 37.21491 | 28.82994 | 28069 ft | 383 kts | 293° |
| 2026-05-06 14:17 | 37.23338 | 28.76720 | 28062 ft | 383 kts | 293° |
| 2026-05-06 14:18 | 37.25181 | 28.70442 | 28069 ft | 384 kts | 293° |
| 2026-05-06 14:18 | 37.26997 | 28.64243 | 28066 ft | 365 kts | 294° |
| 2026-05-06 14:19 | 37.27857 | 28.61305 | 27627 ft | 359 kts | 294° |
| 2026-05-06 14:19 | 37.28733 | 28.58305 | 26728 ft | 369 kts | 293° |
| 2026-05-06 14:19 | 37.29622 | 28.55260 | 25928 ft | 375 kts | 293° |
| 2026-05-06 14:19 | 37.30520 | 28.52180 | 25158 ft | 379 kts | 293° |
| 2026-05-06 14:20 | 37.31427 | 28.49065 | 24617 ft | 379 kts | 293° |
| 2026-05-06 14:20 | 37.32324 | 28.45978 | 24210 ft | 374 kts | 293° |
| 2026-05-06 14:20 | 37.33213 | 28.42920 | 23795 ft | 371 kts | 292° |
| 2026-05-06 14:20 | 37.34092 | 28.39889 | 23306 ft | 368 kts | 292° |
| 2026-05-06 14:21 | 37.34951 | 28.36927 | 22876 ft | 364 kts | 292° |
| 2026-05-06 14:21 | 37.35813 | 28.33953 | 22444 ft | 360 kts | 292° |
| 2026-05-06 14:21 | 37.36663 | 28.31016 | 22076 ft | 355 kts | 292° |
| 2026-05-06 14:21 | 37.37502 | 28.28112 | 21696 ft | 351 kts | 292° |
| 2026-05-06 14:22 | 37.38329 | 28.25246 | 21324 ft | 348 kts | 292° |
| 2026-05-06 14:22 | 37.39147 | 28.22411 | 20948 ft | 344 kts | 292° |
| 2026-05-06 14:22 | 37.39957 | 28.19597 | 20580 ft | 341 kts | 292° |
| 2026-05-06 14:22 | 37.40760 | 28.16806 | 20224 ft | 338 kts | 292° |
| 2026-05-06 14:23 | 37.41555 | 28.14042 | 19871 ft | 335 kts | 292° |
| 2026-05-06 14:23 | 37.42342 | 28.11300 | 19498 ft | 333 kts | 292° |
| 2026-05-06 14:23 | 37.43121 | 28.08588 | 19139 ft | 325 kts | 292° |
| 2026-05-06 14:23 | 37.43877 | 28.05950 | 18786 ft | 317 kts | 292° |
| 2026-05-06 14:24 | 37.44613 | 28.03381 | 18486 ft | 306 kts | 293° |
| 2026-05-06 14:24 | 37.45326 | 28.00887 | 18132 ft | 302 kts | 293° |
| 2026-05-06 14:24 | 37.46043 | 27.98378 | 17777 ft | 308 kts | 292° |
| 2026-05-06 14:24 | 37.46774 | 27.95818 | 17435 ft | 312 kts | 292° |
| 2026-05-06 14:25 | 37.47503 | 27.93260 | 17102 ft | 312 kts | 292° |
| 2026-05-06 14:25 | 37.48236 | 27.90689 | 16779 ft | 311 kts | 292° |
| 2026-05-06 14:25 | 37.48964 | 27.88132 | 16453 ft | 309 kts | 292° |
| 2026-05-06 14:25 | 37.49686 | 27.85593 | 16128 ft | 307 kts | 292° |
| 2026-05-06 14:26 | 37.50401 | 27.83075 | 15801 ft | 304 kts | 292° |
| 2026-05-06 14:26 | 37.51109 | 27.80580 | 15487 ft | 301 kts | 292° |
| 2026-05-06 14:26 | 37.51810 | 27.78110 | 15176 ft | 298 kts | 292° |
| 2026-05-06 14:26 | 37.52505 | 27.75656 | 14867 ft | 296 kts | 292° |
| 2026-05-06 14:27 | 37.53194 | 27.73222 | 14562 ft | 294 kts | 292° |
| 2026-05-06 14:27 | 37.53878 | 27.70803 | 14240 ft | 292 kts | 292° |
| 2026-05-06 14:27 | 37.54555 | 27.68407 | 13934 ft | 288 kts | 292° |
| 2026-05-06 14:27 | 37.55224 | 27.66040 | 13631 ft | 287 kts | 292° |
| 2026-05-06 14:28 | 37.55896 | 27.63656 | 13268 ft | 291 kts | 292° |
| 2026-05-06 14:28 | 37.56581 | 27.61227 | 12975 ft | 296 kts | 292° |
| 2026-05-06 14:28 | 37.57273 | 27.58767 | 12666 ft | 298 kts | 292° |
| 2026-05-06 14:28 | 37.57963 | 27.56316 | 12342 ft | 296 kts | 292° |
| 2026-05-06 14:29 | 37.58647 | 27.53880 | 12028 ft | 293 kts | 292° |
| 2026-05-06 14:29 | 37.59323 | 27.51472 | 11723 ft | 290 kts | 292° |
| 2026-05-06 14:29 | 37.59993 | 27.49085 | 11424 ft | 288 kts | 292° |
| 2026-05-06 14:29 | 37.60657 | 27.46715 | 11112 ft | 286 kts | 292° |
| 2026-05-06 14:30 | 37.61316 | 27.44365 | 10831 ft | 283 kts | 292° |
| 2026-05-06 14:30 | 37.61969 | 27.42028 | 10520 ft | 281 kts | 292° |
| 2026-05-06 14:30 | 37.62783 | 27.39837 | 10292 ft | 272 kts | 309° |
| 2026-05-06 14:30 | 37.64167 | 27.38304 | 10140 ft | 261 kts | 332° |
| 2026-05-06 14:31 | 37.65757 | 27.37299 | 10043 ft | 251 kts | 335° |
| 2026-05-06 14:31 | 37.67321 | 27.36360 | 9838 ft | 251 kts | 335° |
| 2026-05-06 14:31 | 37.68973 | 27.35564 | 9579 ft | 257 kts | 346° |
| 2026-05-06 14:31 | 37.70719 | 27.35006 | 9421 ft | 260 kts | 345° |
| 2026-05-06 14:32 | 37.72473 | 27.34420 | 9240 ft | 262 kts | 345° |
| 2026-05-06 14:32 | 37.74231 | 27.33816 | 9004 ft | 262 kts | 345° |
| 2026-05-06 14:32 | 37.75993 | 27.33201 | 8674 ft | 263 kts | 345° |
| 2026-05-06 14:32 | 37.77746 | 27.32583 | 8403 ft | 261 kts | 345° |
| 2026-05-06 14:33 | 37.79486 | 27.31964 | 8140 ft | 259 kts | 345° |
| 2026-05-06 14:33 | 37.81197 | 27.31353 | 7887 ft | 258 kts | 345° |
| 2026-05-06 14:33 | 37.82945 | 27.30728 | 7599 ft | 258 kts | 345° |
| 2026-05-06 14:33 | 37.84648 | 27.30118 | 7297 ft | 258 kts | 345° |
| 2026-05-06 14:34 | 37.86391 | 27.29494 | 6989 ft | 257 kts | 345° |
| 2026-05-06 14:34 | 37.88088 | 27.28886 | 6704 ft | 256 kts | 345° |
| 2026-05-06 14:34 | 37.89799 | 27.28271 | 6411 ft | 256 kts | 345° |
| 2026-05-06 14:34 | 37.91512 | 27.27656 | 6087 ft | 255 kts | 346° |
| 2026-05-06 14:35 | 37.93219 | 27.27042 | 5781 ft | 255 kts | 345° |
| 2026-05-06 14:35 | 37.94925 | 27.26429 | 5471 ft | 254 kts | 345° |
| 2026-05-06 14:35 | 37.96624 | 27.25819 | 5161 ft | 254 kts | 345° |
| 2026-05-06 14:35 | 37.98320 | 27.25208 | 4848 ft | 253 kts | 345° |
| 2026-05-06 14:36 | 38.00013 | 27.24599 | 4529 ft | 253 kts | 344° |
| 2026-05-06 14:36 | 38.01691 | 27.23996 | 4269 ft | 248 kts | 344° |
| 2026-05-06 14:36 | 38.03333 | 27.23403 | 4020 ft | 243 kts | 344° |
| 2026-05-06 14:36 | 38.04928 | 27.22831 | 3723 ft | 235 kts | 343° |
| 2026-05-06 14:37 | 38.06479 | 27.22317 | 3457 ft | 226 kts | 346° |
| 2026-05-06 14:37 | 38.07986 | 27.21873 | 3220 ft | 219 kts | 346° |
| 2026-05-06 14:37 | 38.09445 | 27.21439 | 2961 ft | 211 kts | 345° |
| 2026-05-06 14:37 | 38.10858 | 27.21014 | 2768 ft | 205 kts | 344° |
| 2026-05-06 14:38 | 38.12194 | 27.20611 | 2599 ft | 191 kts | 345° |
| 2026-05-06 14:38 | 38.13444 | 27.20237 | 2340 ft | 177 kts | 345° |
| 2026-05-06 14:38 | 38.14596 | 27.19891 | 2132 ft | 166 kts | 343° |
| 2026-05-06 14:38 | 38.15707 | 27.19556 | 2011 ft | 162 kts | 343° |
| 2026-05-06 14:39 | 38.16807 | 27.19222 | 1985 ft | 163 kts | 344° |
| 2026-05-06 14:39 | 38.17890 | 27.18899 | 2032 ft | 161 kts | 343° |
| 2026-05-06 14:39 | 38.18974 | 27.18569 | 2073 ft | 158 kts | 343° |
| 2026-05-06 14:39 | 38.20033 | 27.18252 | 2036 ft | 156 kts | 343° |
| 2026-05-06 14:40 | 38.21074 | 27.17961 | 1779 ft | 151 kts | 345° |
| 2026-05-06 14:40 | 38.22123 | 27.17639 | 1555 ft | 157 kts | 343° |
| 2026-05-06 14:40 | 38.23190 | 27.17302 | 1339 ft | 158 kts | 344° |
| 2026-05-06 14:40 | 38.24249 | 27.16974 | 1200 ft | 155 kts | 343° |
| 2026-05-06 14:41 | 38.25298 | 27.16659 | 949 ft | 156 kts | 346° |
| 2026-05-06 14:41 | 38.26331 | 27.16347 | 731 ft | 147 kts | 345° |
| 2026-05-06 14:41 | 38.27294 | 27.16071 | 573 ft | 141 kts | 345° |
| 2026-05-06 14:41 | 38.28245 | 27.15779 | 417 ft | 134 kts | 346° |
| 2026-05-06 14:42 | 38.28916 | 27.15576 | 415 ft | 69 kts | 347° |
| 2026-05-06 14:42 | 38.29237 | 27.15479 | 415 ft | 42 kts | 346° |
| 2026-05-06 14:42 | 38.29379 | 27.15433 | 413 ft | 8 kts | 334° |
| 2026-05-06 14:42 | 38.29384 | 27.15383 | 422 ft | 8 kts | 256° |
| 2026-05-06 14:43 | 38.29366 | 27.15285 | 415 ft | 11 kts | 257° |
| 2026-05-06 14:43 | 38.29353 | 27.15215 | 413 ft | 0 kts | 256° |
| 2026-05-06 14:43 | 38.29353 | 27.15213 | 413 ft | 1 kts | 256° |
| 2026-05-06 14:44 | 38.29347 | 27.15182 | 407 ft | 6 kts | 256° |
| 2026-05-06 14:44 | 38.29348 | 27.15129 | 409 ft | 6 kts | 311° |
| 2026-05-06 14:44 | 38.29390 | 27.15113 | 410 ft | 7 kts | 351° |
| 2026-05-06 14:45 | 38.29497 | 27.15083 | 414 ft | 5 kts | 333° |
| 2026-05-06 14:45 | 38.29503 | 27.15044 | 414 ft | 5 kts | 262° |
| 2026-05-06 14:45 | 38.29497 | 27.15011 | 414 ft | 1 kts | 256° |
| 2026-05-06 14:45 | 38.29495 | 27.15002 | 414 ft | 1 kts | 256° |
| 2026-05-06 14:46 | 38.29495 | 27.15001 | 414 ft | 0 kts | 256° |